Time;durP1;ratioP1;P1;durP2;ratioP2;P2;SDS_P1;SDS_P2;PMS_P1;PMS_P2;Temp;Humidity;BMP_temperature;BMP_pressure;BME280_temperature;BME280_humidity;BME280_pressure;Samples;Min_cycle;Max_cycle;Signal;HPM_P1;HPM_P2
2023/06/24 00:02:12;;;;;;;11.13;10.07;;;21.10;86.90;;;;;;5027881;28;20113;-73
2023/06/24 00:04:38;;;;;;;11.40;10.23;;;21.10;86.90;;;;;;5013853;28;20121;-74
2023/06/24 00:07:04;;;;;;;11.15;10.05;;;21.10;86.70;;;;;;5012989;28;20536;-74
2023/06/24 00:09:31;;;;;;;11.07;10.00;;;21.10;86.50;;;;;;5013404;28;20041;-72
2023/06/24 00:12:00;;;;;;;10.75;9.73;;;21.10;86.60;;;;;;5013825;28;20582;-72
2023/06/24 00:14:27;;;;;;;10.80;9.68;;;21.20;86.50;;;;;;4999295;28;20026;-74
2023/06/24 00:16:54;;;;;;;11.80;10.18;;;21.20;86.80;;;;;;5012218;28;20037;-72
2023/06/24 00:19:22;;;;;;;10.70;9.60;;;21.20;86.80;;;;;;5012994;28;20041;-73
2023/06/24 00:21:52;;;;;;;10.40;9.40;;;21.20;86.50;;;;;;5014624;28;20511;-72
2023/06/24 00:24:19;;;;;;;10.98;9.27;;;21.20;86.60;;;;;;5019016;28;20040;-72
2023/06/24 00:26:48;;;;;;;10.77;8.77;;;21.20;86.50;;;;;;5017619;28;20049;-72
2023/06/24 00:29:15;;;;;;;9.88;8.82;;;21.20;86.40;;;;;;5005810;28;20049;-72
2023/06/24 00:31:41;;;;;;;10.73;8.98;;;21.20;86.30;;;;;;5017035;28;20068;-72
2023/06/24 00:34:07;;;;;;;9.35;8.55;;;21.20;86.40;;;;;;5016389;28;20092;-72
2023/06/24 00:36:35;;;;;;;9.30;8.50;;;21.20;86.10;;;;;;5017722;28;20629;-72
2023/06/24 00:39:03;;;;;;;9.15;8.25;;;21.20;86.00;;;;;;5014872;28;20034;-72
2023/06/24 00:41:34;;;;;;;9.55;8.73;;;21.30;85.80;;;;;;5016563;28;20029;-72
2023/06/24 00:44:01;;;;;;;8.90;7.90;;;21.20;85.60;;;;;;5016575;28;20036;-72
2023/06/24 00:46:28;;;;;;;8.48;7.72;;;21.20;85.40;;;;;;5016061;28;20132;-72
2023/06/24 00:48:56;;;;;;;8.63;7.93;;;21.20;85.30;;;;;;5018999;28;20049;-72
2023/06/24 00:51:26;;;;;;;9.02;8.13;;;21.20;85.10;;;;;;5014680;28;20087;-72
2023/06/24 00:53:58;;;;;;;8.48;7.68;;;21.20;85.10;;;;;;5032538;28;20025;-72
2023/06/24 00:56:31;;;;;;;8.27;7.45;;;21.30;85.10;;;;;;5032392;28;20048;-72
2023/06/24 00:59:01;;;;;;;7.90;7.20;;;21.20;84.90;;;;;;5016724;28;20044;-72
2023/06/24 01:01:33;;;;;;;8.15;7.35;;;21.20;84.80;;;;;;5015928;28;20591;-72
2023/06/24 01:04:00;;;;;;;7.35;6.75;;;21.20;84.80;;;;;;5016151;28;20050;-72
2023/06/24 01:06:30;;;;;;;7.55;6.85;;;21.20;84.60;;;;;;5016619;28;20044;-72
2023/06/24 01:08:59;;;;;;;7.88;6.75;;;21.20;84.50;;;;;;5016573;28;20033;-72
2023/06/24 01:11:26;;;;;;;8.07;7.28;;;21.20;84.40;;;;;;5016238;28;20067;-72
2023/06/24 01:13:53;;;;;;;7.60;6.88;;;21.20;84.20;;;;;;5002895;28;20033;-72
2023/06/24 01:16:54;;;;;;;7.50;6.80;;;21.20;84.00;;;;;;5015282;28;20042;-72
2023/06/24 01:19:24;;;;;;;8.35;6.50;;;21.30;83.80;;;;;;5014519;28;20514;-73
2023/06/24 01:22:11;;;;;;;6.78;6.18;;;21.20;83.70;;;;;;5016428;28;20095;-72
2023/06/24 01:25:16;;;;;;;6.93;6.32;;;21.20;83.60;;;;;;5015702;28;20407;-73
2023/06/24 01:28:08;;;;;;;6.88;6.28;;;21.20;83.70;;;;;;5016496;28;20045;-72
2023/06/24 01:31:07;;;;;;;6.65;6.00;;;21.20;83.60;;;;;;5003886;28;20128;-72
2023/06/24 01:33:44;;;;;;;6.38;5.88;;;21.20;83.40;;;;;;5015144;28;20033;-72
2023/06/24 01:36:15;;;;;;;6.25;5.70;;;21.20;83.50;;;;;;5015393;28;20114;-72
2023/06/24 01:38:48;;;;;;;5.78;5.28;;;21.20;83.20;;;;;;5015693;28;20424;-73
2023/06/24 01:41:18;;;;;;;5.28;4.88;;;21.20;83.10;;;;;;5016306;28;20100;-73
2023/06/24 01:43:45;;;;;;;5.30;4.90;;;21.20;82.80;;;;;;5030597;28;20087;-72
2023/06/24 01:46:16;;;;;;;6.22;5.63;;;21.20;82.60;;;;;;5002964;28;20515;-72
2023/06/24 01:48:45;;;;;;;4.55;4.10;;;21.20;82.50;;;;;;5030784;28;20410;-72
2023/06/24 01:51:17;;;;;;;6.00;4.35;;;21.20;82.40;;;;;;5005216;28;20041;-72
2023/06/24 01:53:48;;;;;;;4.55;4.18;;;21.20;82.10;;;;;;5031393;28;20127;-72
2023/06/24 01:56:15;;;;;;;4.53;4.13;;;21.20;82.00;;;;;;5013165;28;20042;-73
2023/06/24 01:58:44;;;;;;;4.65;3.88;;;21.20;81.90;;;;;;5017768;28;20461;-73
2023/06/24 02:01:12;;;;;;;4.10;3.78;;;21.20;81.80;;;;;;5029973;28;20045;-73
2023/06/24 02:03:41;;;;;;;4.00;3.55;;;21.10;81.70;;;;;;5015793;28;20022;-73
2023/06/24 02:06:09;;;;;;;3.40;3.10;;;21.10;81.80;;;;;;5016247;28;20705;-74
2023/06/24 02:08:38;;;;;;;3.60;3.30;;;21.10;81.70;;;;;;5014899;28;20145;-73
2023/06/24 02:11:05;;;;;;;3.25;2.95;;;21.20;81.60;;;;;;5014376;28;20084;-74
2023/06/24 02:13:35;;;;;;;3.20;3.00;;;21.20;81.60;;;;;;5015009;28;20046;-73
2023/06/24 02:16:05;;;;;;;3.60;3.30;;;21.20;81.60;;;;;;5010242;28;20038;-72
2023/06/24 02:18:32;;;;;;;3.83;2.80;;;21.30;81.50;;;;;;4996034;28;20597;-73
2023/06/24 02:21:00;;;;;;;3.65;2.80;;;21.30;81.00;;;;;;5014323;28;20049;-72
2023/06/24 02:23:28;;;;;;;3.78;2.55;;;21.30;80.90;;;;;;5015516;28;20163;-72
2023/06/24 02:25:54;;;;;;;3.22;3.00;;;21.30;80.90;;;;;;5028666;28;20041;-73
2023/06/24 02:28:21;;;;;;;5.55;2.42;;;21.30;80.80;;;;;;5016759;28;20581;-73
2023/06/24 02:30:47;;;;;;;3.08;2.30;;;21.20;80.80;;;;;;5014728;28;20042;-73
2023/06/24 02:33:15;;;;;;;2.70;2.50;;;21.20;80.70;;;;;;5015383;28;20040;-73
2023/06/24 02:35:45;;;;;;;3.45;2.10;;;21.20;80.60;;;;;;5012305;28;20033;-73
2023/06/24 02:38:12;;;;;;;2.25;2.10;;;21.20;80.70;;;;;;5013449;28;20045;-73
2023/06/24 02:40:38;;;;;;;2.45;1.83;;;21.20;80.60;;;;;;5015550;28;20046;-73
2023/06/24 02:43:04;;;;;;;2.97;2.35;;;21.20;80.50;;;;;;5029481;28;20038;-73
2023/06/24 02:45:31;;;;;;;1.88;1.75;;;21.20;80.40;;;;;;5011602;28;20547;-73
2023/06/24 02:47:58;;;;;;;2.30;2.10;;;21.20;80.60;;;;;;5014480;28;20033;-73
2023/06/24 02:50:25;;;;;;;2.00;1.77;;;21.20;80.40;;;;;;5013134;28;20060;-73
2023/06/24 02:52:52;;;;;;;1.67;1.58;;;21.20;80.20;;;;;;5014656;28;20259;-73
2023/06/24 02:55:21;;;;;;;1.90;1.80;;;21.20;80.20;;;;;;5013117;28;20030;-73
2023/06/24 02:57:54;;;;;;;1.85;1.67;;;21.20;80.10;;;;;;5014570;28;20137;-73
2023/06/24 03:00:33;;;;;;;1.88;1.50;;;21.20;80.00;;;;;;5013605;28;20094;-73
2023/06/24 03:03:09;;;;;;;1.40;1.30;;;21.20;79.80;;;;;;5014508;28;20642;-73
2023/06/24 03:05:39;;;;;;;1.27;1.23;;;21.20;80.00;;;;;;5014076;28;20133;-73
2023/06/24 03:08:05;;;;;;;1.42;1.33;;;21.10;79.70;;;;;;5029007;28;20526;-73
2023/06/24 03:10:35;;;;;;;1.17;1.08;;;21.10;79.80;;;;;;5019652;28;20030;-72
2023/06/24 03:13:01;;;;;;;2.88;1.10;;;21.20;79.70;;;;;;5015257;28;20042;-73
2023/06/24 03:15:40;;;;;;;0.93;0.82;;;21.10;79.80;;;;;;5011532;28;20459;-72
2023/06/24 03:18:06;;;;;;;1.50;1.20;;;21.10;79.50;;;;;;5013842;28;20048;-74
2023/06/24 03:20:38;;;;;;;1.42;1.33;;;21.10;79.50;;;;;;5012415;28;20049;-73
2023/06/24 03:23:06;;;;;;;1.00;1.00;;;21.10;79.60;;;;;;5009692;28;20587;-73
2023/06/24 03:25:33;;;;;;;0.90;0.90;;;21.10;79.70;;;;;;5000026;28;20049;-73
2023/06/24 03:28:08;;;;;;;1.10;1.00;;;21.10;79.40;;;;;;4994782;28;20046;-73
2023/06/24 03:30:41;;;;;;;1.50;0.90;;;21.10;79.60;;;;;;5009616;28;20077;-73
2023/06/24 03:33:07;;;;;;;0.80;0.80;;;21.10;79.30;;;;;;4994466;28;21228;-73
2023/06/24 03:35:33;;;;;;;1.80;0.80;;;21.10;79.40;;;;;;5026162;28;20389;-73
2023/06/24 03:38:02;;;;;;;1.02;0.93;;;21.10;79.60;;;;;;5013475;28;20120;-73
2023/06/24 03:40:31;;;;;;;1.13;1.02;;;21.10;79.30;;;;;;5011923;28;20044;-73
2023/06/24 03:42:57;;;;;;;0.90;0.90;;;21.10;79.30;;;;;;5013002;28;20033;-73
2023/06/24 03:45:23;;;;;;;1.35;0.90;;;21.00;79.10;;;;;;4996045;28;20033;-73
2023/06/24 03:47:50;;;;;;;1.00;1.00;;;21.10;79.40;;;;;;5013243;28;20092;-73
2023/06/24 03:50:16;;;;;;;2.55;0.90;;;21.00;79.50;;;;;;5011811;28;20129;-73
2023/06/24 03:52:44;;;;;;;1.83;1.00;;;21.10;79.60;;;;;;5013697;28;20500;-73
2023/06/24 03:55:11;;;;;;;0.80;0.80;;;21.00;79.50;;;;;;5029249;28;20030;-73
2023/06/24 03:57:37;;;;;;;0.82;0.82;;;21.10;79.60;;;;;;5016715;28;20026;-73
2023/06/24 04:00:15;;;;;;;1.10;0.90;;;21.00;79.40;;;;;;5015555;28;20037;-73
2023/06/24 04:02:43;;;;;;;0.85;0.85;;;21.00;79.50;;;;;;5016442;28;20030;-73
2023/06/24 04:05:09;;;;;;;4.38;1.05;;;21.00;79.70;;;;;;5032455;28;20062;-73
2023/06/24 04:07:35;;;;;;;0.95;0.82;;;21.00;79.70;;;;;;5020898;28;20030;-73
2023/06/24 04:10:08;;;;;;;3.60;0.90;;;21.00;79.60;;;;;;5013453;28;20030;-73
2023/06/24 04:12:36;;;;;;;1.67;0.80;;;21.00;79.80;;;;;;5012021;28;20504;-73
2023/06/24 04:15:04;;;;;;;0.68;0.68;;;21.00;79.50;;;;;;5021538;28;20029;-73
2023/06/24 04:17:32;;;;;;;0.60;0.60;;;21.00;79.30;;;;;;5032004;28;20250;-73
2023/06/24 04:19:59;;;;;;;1.00;0.80;;;21.00;79.40;;;;;;5015659;28;20129;-72
2023/06/24 04:22:26;;;;;;;0.73;0.70;;;21.00;79.40;;;;;;5015456;28;20033;-73
2023/06/24 04:24:56;;;;;;;1.67;0.77;;;21.00;79.10;;;;;;5020794;28;20033;-73
2023/06/24 04:27:23;;;;;;;0.55;0.55;;;21.00;79.00;;;;;;5015719;28;20141;-73
2023/06/24 04:29:49;;;;;;;1.52;0.60;;;21.00;79.10;;;;;;5016199;28;20025;-73
2023/06/24 04:32:15;;;;;;;1.80;0.57;;;21.10;79.00;;;;;;5020928;28;20123;-73
2023/06/24 04:34:41;;;;;;;1.33;0.60;;;21.00;79.00;;;;;;5015192;28;20167;-72
2023/06/24 04:37:07;;;;;;;0.50;0.50;;;21.10;79.10;;;;;;5016640;28;20037;-73
2023/06/24 04:39:33;;;;;;;0.40;0.40;;;21.00;79.00;;;;;;5016775;28;20041;-73
2023/06/24 04:41:59;;;;;;;0.65;0.50;;;21.10;79.00;;;;;;5018422;28;20431;-72
2023/06/24 04:44:26;;;;;;;2.30;0.45;;;21.10;78.90;;;;;;5016828;28;20474;-73
2023/06/24 04:46:52;;;;;;;0.50;0.50;;;21.10;78.70;;;;;;5016257;28;20037;-72
2023/06/24 04:49:18;;;;;;;2.78;0.70;;;21.10;78.60;;;;;;5015085;28;20041;-72
2023/06/24 04:51:44;;;;;;;0.63;0.50;;;21.10;78.50;;;;;;5019244;28;20033;-70
2023/06/24 04:54:12;;;;;;;1.33;0.50;;;21.10;78.70;;;;;;5017702;28;20582;-70
2023/06/24 04:56:39;;;;;;;0.77;0.75;;;21.10;78.90;;;;;;5017288;28;20033;-70
2023/06/24 04:59:05;;;;;;;2.00;0.60;;;21.10;78.80;;;;;;5013025;28;20045;-70
2023/06/24 05:01:31;;;;;;;0.50;0.40;;;21.20;78.50;;;;;;5032152;28;20042;-70
2023/06/24 05:03:57;;;;;;;0.80;0.70;;;21.20;78.50;;;;;;5020154;28;20543;-70
2023/06/24 05:06:23;;;;;;;1.75;0.60;;;21.20;78.50;;;;;;5016537;28;20037;-69
2023/06/24 05:08:48;;;;;;;1.50;0.57;;;21.20;78.50;;;;;;5015236;28;20660;-70
2023/06/24 05:11:14;;;;;;;0.70;0.50;;;21.20;78.40;;;;;;5015196;28;20034;-70
2023/06/24 05:13:40;;;;;;;1.95;0.68;;;21.20;78.30;;;;;;5013257;28;20061;-70
2023/06/24 05:16:06;;;;;;;1.05;0.55;;;21.20;78.20;;;;;;5014881;28;20032;-70
2023/06/24 05:18:32;;;;;;;0.50;0.50;;;21.30;78.20;;;;;;5016142;28;20045;-69
2023/06/24 05:20:58;;;;;;;0.60;0.47;;;21.30;78.20;;;;;;5016112;28;20053;-69
2023/06/24 05:23:24;;;;;;;1.02;0.60;;;21.30;78.30;;;;;;5016070;28;20037;-70
2023/06/24 05:25:50;;;;;;;2.72;0.60;;;21.30;78.30;;;;;;5015124;28;20057;-73
2023/06/24 05:28:16;;;;;;;0.55;0.45;;;21.30;78.50;;;;;;5015551;28;20038;-69
2023/06/24 05:30:45;;;;;;;1.33;0.50;;;21.30;78.30;;;;;;5015429;28;20118;-70
2023/06/24 05:33:11;;;;;;;0.80;0.50;;;21.30;78.30;;;;;;5015953;28;20772;-70
2023/06/24 05:35:39;;;;;;;1.27;0.55;;;21.30;78.30;;;;;;5015912;28;20040;-70
2023/06/24 05:38:05;;;;;;;1.35;0.45;;;21.30;78.30;;;;;;5014437;28;20506;-68
2023/06/24 05:40:31;;;;;;;0.50;0.50;;;21.30;78.10;;;;;;5014679;28;20191;-68
2023/06/24 05:42:57;;;;;;;0.40;0.40;;;21.30;78.10;;;;;;5016080;28;20084;-69
2023/06/24 05:45:24;;;;;;;0.80;0.60;;;21.30;78.30;;;;;;5015580;28;20029;-71
2023/06/24 05:47:50;;;;;;;0.80;0.40;;;21.30;78.30;;;;;;5013999;28;20492;-70
2023/06/24 05:50:16;;;;;;;0.98;0.60;;;21.30;78.20;;;;;;5014827;28;20048;-70
2023/06/24 05:52:41;;;;;;;0.68;0.63;;;21.40;78.00;;;;;;5014728;28;20041;-70
2023/06/24 05:55:08;;;;;;;1.88;0.70;;;21.40;77.90;;;;;;5014306;28;20042;-70
2023/06/24 05:57:33;;;;;;;1.17;0.60;;;21.40;78.20;;;;;;5013468;28;20408;-70
2023/06/24 05:59:59;;;;;;;1.80;0.60;;;21.40;77.90;;;;;;5012272;28;20030;-71
2023/06/24 06:02:25;;;;;;;0.47;0.47;;;21.40;77.90;;;;;;5015414;28;20041;-71
2023/06/24 06:04:51;;;;;;;0.60;0.60;;;21.40;77.90;;;;;;5015144;28;20038;-71
2023/06/24 06:07:17;;;;;;;1.23;0.75;;;21.40;78.00;;;;;;5015344;28;20425;-71
2023/06/24 06:09:43;;;;;;;1.55;0.70;;;21.40;77.80;;;;;;5013818;28;20042;-73
2023/06/24 06:12:10;;;;;;;1.73;0.60;;;21.50;77.50;;;;;;5016016;28;20472;-75
2023/06/24 06:14:36;;;;;;;1.20;0.70;;;21.50;77.70;;;;;;5015933;28;20096;-73
2023/06/24 06:17:01;;;;;;;2.10;0.80;;;21.50;78.10;;;;;;5015073;28;20042;-74
2023/06/24 06:19:27;;;;;;;2.92;0.75;;;21.50;78.20;;;;;;5013762;28;20052;-73
2023/06/24 06:21:53;;;;;;;1.40;0.60;;;21.50;78.00;;;;;;5014945;28;20762;-72
2023/06/24 06:24:19;;;;;;;1.25;0.63;;;21.50;78.00;;;;;;5012728;28;20046;-72
2023/06/24 06:26:45;;;;;;;1.38;0.57;;;21.50;77.90;;;;;;5014797;28;20041;-72
2023/06/24 06:29:11;;;;;;;1.02;0.50;;;21.50;77.80;;;;;;5013319;28;20519;-70
2023/06/24 06:31:37;;;;;;;1.10;0.60;;;21.50;77.80;;;;;;5012530;28;20061;-71
2023/06/24 06:34:03;;;;;;;1.48;0.70;;;21.40;77.90;;;;;;5014349;28;20480;-70
2023/06/24 06:36:29;;;;;;;1.52;0.90;;;21.40;77.70;;;;;;5014547;28;20026;-70
2023/06/24 06:38:55;;;;;;;1.13;0.77;;;21.50;78.00;;;;;;5014354;28;20531;-71
2023/06/24 06:41:24;;;;;;;1.10;0.60;;;21.50;78.00;;;;;;5013130;28;20093;-72
2023/06/24 06:43:53;;;;;;;5.25;0.70;;;21.50;78.00;;;;;;5012229;28;20045;-72
2023/06/24 06:46:20;;;;;;;2.88;0.90;;;21.50;78.30;;;;;;5015252;28;20140;-72
2023/06/24 06:48:46;;;;;;;2.90;0.90;;;21.50;78.20;;;;;;5013829;28;20088;-73
2023/06/24 06:51:13;;;;;;;2.55;0.75;;;21.50;78.20;;;;;;5013680;28;20037;-71
2023/06/24 06:53:39;;;;;;;2.42;0.80;;;21.50;78.70;;;;;;5014573;28;20481;-72
2023/06/24 06:56:05;;;;;;;1.45;1.08;;;21.50;78.20;;;;;;5010192;28;20463;-72
2023/06/24 06:58:31;;;;;;;2.85;0.80;;;21.50;78.10;;;;;;5014425;28;20033;-71
2023/06/24 07:01:01;;;;;;;3.90;0.80;;;21.50;78.00;;;;;;5013964;28;20034;-72
2023/06/24 07:03:28;;;;;;;3.33;0.98;;;21.50;78.00;;;;;;5013347;28;20504;-72
2023/06/24 07:05:54;;;;;;;2.67;1.20;;;21.50;77.90;;;;;;5015126;28;20084;-72
2023/06/24 07:08:20;;;;;;;1.17;1.05;;;21.40;77.80;;;;;;5011662;28;20046;-72
2023/06/24 07:10:46;;;;;;;2.53;0.90;;;21.50;77.80;;;;;;5013499;28;20061;-73
2023/06/24 07:13:12;;;;;;;2.38;1.00;;;21.50;78.00;;;;;;5006809;28;20504;-76
2023/06/24 07:15:38;;;;;;;2.30;1.00;;;21.50;78.10;;;;;;5014942;28;20057;-76
2023/06/24 07:18:03;;;;;;;5.00;1.00;;;21.50;78.20;;;;;;5010460;28;20037;-75
2023/06/24 07:20:29;;;;;;;9.43;1.40;;;21.50;78.10;;;;;;5007937;28;20061;-75
2023/06/24 07:22:55;;;;;;;3.15;0.90;;;21.50;78.00;;;;;;5011368;28;20038;-75
2023/06/24 07:25:21;;;;;;;5.07;0.90;;;21.50;77.80;;;;;;5012652;28;20046;-74
2023/06/24 07:27:47;;;;;;;2.72;1.25;;;21.50;77.80;;;;;;5012062;28;20168;-75
2023/06/24 07:30:13;;;;;;;2.80;1.00;;;21.50;77.80;;;;;;5012037;28;20034;-75
2023/06/24 07:32:39;;;;;;;3.45;1.00;;;21.50;78.00;;;;;;5007915;28;20043;-73
2023/06/24 07:35:06;;;;;;;2.20;1.02;;;21.50;78.20;;;;;;5012480;28;20037;-73
2023/06/24 07:37:32;;;;;;;3.80;0.98;;;21.60;78.30;;;;;;5010499;28;20502;-73
2023/06/24 07:39:58;;;;;;;4.10;1.10;;;21.50;78.20;;;;;;5009858;28;20038;-75
2023/06/24 07:42:24;;;;;;;2.50;0.80;;;21.60;78.20;;;;;;5011410;28;20504;-74
2023/06/24 07:44:50;;;;;;;2.65;0.80;;;21.60;78.00;;;;;;5011702;28;20037;-74
2023/06/24 07:47:18;;;;;;;1.40;0.95;;;21.50;77.80;;;;;;5010401;28;20040;-74
2023/06/24 07:49:44;;;;;;;2.05;0.90;;;21.50;77.70;;;;;;5009962;28;20131;-73
2023/06/24 07:52:10;;;;;;;1.55;1.10;;;21.60;77.50;;;;;;5008578;28;20065;-74
2023/06/24 07:54:36;;;;;;;2.40;0.93;;;21.60;77.50;;;;;;5011271;28;20176;-76
2023/06/24 07:57:02;;;;;;;3.83;0.70;;;21.60;78.00;;;;;;5009780;28;20361;-77
2023/06/24 07:59:28;;;;;;;1.95;0.93;;;21.60;78.30;;;;;;5010698;28;20038;-74
2023/06/24 08:01:54;;;;;;;4.97;0.90;;;21.60;78.40;;;;;;5014378;28;20131;-77
2023/06/24 08:04:20;;;;;;;3.42;1.15;;;21.60;78.80;;;;;;5015367;28;20157;-76
2023/06/24 08:06:46;;;;;;;2.05;1.10;;;21.70;78.60;;;;;;5014507;28;20030;-76
2023/06/24 08:09:12;;;;;;;0.88;0.80;;;21.70;78.70;;;;;;5013555;28;20411;-76
2023/06/24 08:11:38;;;;;;;1.98;0.98;;;21.70;78.50;;;;;;5015592;28;20029;-74
2023/06/24 08:14:04;;;;;;;1.58;0.70;;;21.70;78.20;;;;;;5015152;28;20037;-76
2023/06/24 08:16:30;;;;;;;0.98;0.80;;;21.60;78.10;;;;;;5013441;28;20037;-74
2023/06/24 08:18:56;;;;;;;2.03;0.80;;;21.60;78.20;;;;;;5014762;28;20041;-72
2023/06/24 08:21:22;;;;;;;3.22;1.23;;;21.60;78.10;;;;;;5014050;28;20054;-72
2023/06/24 08:23:50;;;;;;;1.13;0.80;;;21.60;78.20;;;;;;5016157;28;20615;-72
2023/06/24 08:26:16;;;;;;;3.55;0.82;;;21.60;78.40;;;;;;5014518;28;20033;-72
2023/06/24 08:28:42;;;;;;;1.58;0.93;;;21.60;79.00;;;;;;5015237;28;20049;-71
2023/06/24 08:31:08;;;;;;;1.25;0.90;;;21.70;78.60;;;;;;5014693;28;20034;-70
2023/06/24 08:33:34;;;;;;;2.05;1.15;;;21.60;78.50;;;;;;5015236;28;20037;-71
2023/06/24 08:36:00;;;;;;;1.60;0.70;;;21.60;78.30;;;;;;5014684;28;20035;-71
2023/06/24 08:38:26;;;;;;;0.98;0.75;;;21.60;78.40;;;;;;5012485;28;20029;-69
2023/06/24 08:40:52;;;;;;;3.03;0.85;;;21.60;78.40;;;;;;5012742;28;20048;-69
2023/06/24 08:43:18;;;;;;;1.27;0.70;;;21.50;78.50;;;;;;5015245;28;20037;-71
2023/06/24 08:45:45;;;;;;;1.42;0.52;;;21.50;78.90;;;;;;5017810;28;20037;-69
2023/06/24 08:48:13;;;;;;;0.80;0.80;;;21.50;78.80;;;;;;5017401;28;20037;-69
2023/06/24 08:50:46;;;;;;;1.05;0.82;;;21.50;78.90;;;;;;5016761;28;20032;-70
2023/06/24 08:53:13;;;;;;;0.55;0.55;;;21.50;79.10;;;;;;5017261;28;20412;-75
2023/06/24 08:55:42;;;;;;;0.98;0.75;;;21.50;79.00;;;;;;5016775;28;20041;-75
2023/06/24 08:58:09;;;;;;;1.83;0.75;;;21.50;79.30;;;;;;5004799;28;20427;-75
2023/06/24 09:00:35;;;;;;;4.05;0.73;;;21.50;79.40;;;;;;5018877;28;20037;-75
2023/06/24 09:03:02;;;;;;;1.55;0.70;;;21.50;80.00;;;;;;5017007;28;20052;-70
2023/06/24 09:05:28;;;;;;;3.70;0.80;;;21.50;79.80;;;;;;5018396;28;20049;-70
2023/06/24 09:07:54;;;;;;;4.85;0.80;;;21.50;80.00;;;;;;5017992;28;20494;-74
2023/06/24 09:10:34;;;;;;;1.83;0.60;;;21.40;79.80;;;;;;5014285;28;20520;-75
2023/06/24 09:13:01;;;;;;;3.20;1.00;;;21.50;79.90;;;;;;5004042;28;20171;-75
2023/06/24 09:15:35;;;;;;;2.47;1.00;;;21.40;80.20;;;;;;5021939;28;20143;-76
2023/06/24 09:18:02;;;;;;;2.70;1.00;;;21.40;80.20;;;;;;5019159;28;20045;-75
2023/06/24 09:20:29;;;;;;;2.92;1.10;;;21.40;80.10;;;;;;5016776;28;20056;-76
2023/06/24 09:23:02;;;;;;;1.67;0.98;;;21.40;80.20;;;;;;5032257;28;20623;-75
2023/06/24 09:25:29;;;;;;;2.65;1.35;;;21.40;80.20;;;;;;5016974;28;20166;-75
2023/06/24 09:27:58;;;;;;;2.83;1.10;;;21.40;80.20;;;;;;5015772;28;20041;-76
2023/06/24 09:30:25;;;;;;;3.10;1.33;;;21.40;80.20;;;;;;5032211;28;20025;-75
2023/06/24 09:32:52;;;;;;;4.97;1.35;;;21.40;80.10;;;;;;5015443;28;20030;-77
2023/06/24 09:35:23;;;;;;;1.67;1.30;;;21.40;80.40;;;;;;5015804;28;20473;-75
2023/06/24 09:37:54;;;;;;;5.60;1.13;;;21.30;80.20;;;;;;5013744;28;20057;-75
2023/06/24 09:40:20;;;;;;;3.35;1.30;;;21.40;80.70;;;;;;5015467;28;20535;-71
2023/06/24 09:42:54;;;;;;;2.22;1.00;;;21.30;80.20;;;;;;5014355;28;20061;-72
2023/06/24 09:45:25;;;;;;;2.65;1.25;;;21.30;80.30;;;;;;5014727;28;20029;-72
2023/06/24 09:47:52;;;;;;;1.42;1.33;;;21.30;80.30;;;;;;5012821;28;20038;-73
2023/06/24 09:50:19;;;;;;;2.22;1.25;;;21.30;80.90;;;;;;5013472;28;20038;-71
2023/06/24 09:52:45;;;;;;;2.30;1.30;;;21.30;80.50;;;;;;5013555;28;20041;-71
2023/06/24 09:55:15;;;;;;;2.03;1.40;;;21.30;80.60;;;;;;5014029;28;20552;-72
2023/06/24 09:57:48;;;;;;;1.95;1.48;;;21.30;80.50;;;;;;5013091;28;20480;-72
2023/06/24 10:00:17;;;;;;;1.50;1.40;;;21.30;80.40;;;;;;5015373;28;20569;-71
2023/06/24 10:02:45;;;;;;;1.77;1.40;;;21.30;80.60;;;;;;5013475;28;20034;-76
2023/06/24 10:05:13;;;;;;;1.70;1.60;;;21.20;80.90;;;;;;5013297;28;21476;-76
2023/06/24 10:07:40;;;;;;;1.77;1.50;;;21.30;80.80;;;;;;5014319;28;20496;-76
2023/06/24 10:10:07;;;;;;;2.63;1.70;;;21.20;81.00;;;;;;5014177;28;20456;-77
2023/06/24 10:12:35;;;;;;;2.85;2.05;;;21.20;80.60;;;;;;5013746;28;20029;-75
2023/06/24 10:15:01;;;;;;;2.10;1.90;;;21.20;80.90;;;;;;5014155;28;20028;-77
2023/06/24 10:17:27;;;;;;;3.47;2.10;;;21.30;81.20;;;;;;5013299;28;20034;-77
2023/06/24 10:19:57;;;;;;;3.55;2.10;;;21.20;81.20;;;;;;5011598;28;20053;-77
2023/06/24 10:22:24;;;;;;;2.58;2.38;;;21.20;80.30;;;;;;5012816;28;20045;-76
2023/06/24 10:24:51;;;;;;;3.45;2.17;;;21.20;80.00;;;;;;5027821;28;20037;-76
2023/06/24 10:27:23;;;;;;;4.63;2.55;;;21.20;79.30;;;;;;5013062;28;20037;-76
2023/06/24 10:29:51;;;;;;;3.88;2.38;;;21.00;79.60;;;;;;5013289;28;20136;-75
2023/06/24 10:32:21;;;;;;;2.78;2.58;;;21.00;79.70;;;;;;5013334;28;20037;-75
2023/06/24 10:34:53;;;;;;;3.10;2.58;;;21.00;79.60;;;;;;5013401;28;20446;-77
2023/06/24 10:37:23;;;;;;;4.00;2.53;;;21.00;79.60;;;;;;5013397;28;20041;-76
2023/06/24 10:39:50;;;;;;;4.82;2.60;;;21.00;80.10;;;;;;5008821;28;21509;-75
2023/06/24 10:42:41;;;;;;;4.57;2.70;;;21.00;80.40;;;;;;4999438;28;20116;-76
2023/06/24 10:45:10;;;;;;;2.80;2.60;;;21.00;80.80;;;;;;5013545;28;20416;-76
2023/06/24 10:47:38;;;;;;;5.45;3.08;;;21.00;80.80;;;;;;5013879;28;20045;-76
2023/06/24 10:50:06;;;;;;;4.25;3.20;;;21.00;80.80;;;;;;5014732;28;20057;-77
2023/06/24 10:52:32;;;;;;;3.60;3.10;;;21.00;80.90;;;;;;5013909;28;20123;-76
2023/06/24 10:54:58;;;;;;;3.42;2.75;;;21.00;80.70;;;;;;5015080;28;20088;-75
2023/06/24 10:57:26;;;;;;;3.20;2.90;;;21.00;80.80;;;;;;5017269;28;20037;-76
2023/06/24 10:59:56;;;;;;;3.42;3.13;;;21.00;81.20;;;;;;5014219;28;20036;-76
2023/06/24 11:02:24;;;;;;;4.30;3.10;;;20.90;81.10;;;;;;5014562;28;20205;-76
2023/06/24 11:04:55;;;;;;;4.28;3.58;;;20.90;80.80;;;;;;5013272;28;20116;-75
2023/06/24 11:07:27;;;;;;;4.28;3.45;;;20.90;80.70;;;;;;5014164;28;20404;-75
2023/06/24 11:09:58;;;;;;;3.88;3.55;;;20.90;80.80;;;;;;5014086;28;20045;-76
2023/06/24 11:12:26;;;;;;;3.70;3.40;;;20.90;81.10;;;;;;5013725;28;20104;-76
2023/06/24 11:14:56;;;;;;;3.90;3.60;;;20.90;80.80;;;;;;5012998;28;20032;-77
2023/06/24 11:17:22;;;;;;;8.45;4.03;;;20.80;80.60;;;;;;5013597;28;20041;-77
2023/06/24 11:19:48;;;;;;;5.03;3.63;;;20.80;81.20;;;;;;5013351;28;20053;-76
2023/06/24 11:22:15;;;;;;;5.20;3.88;;;20.90;81.00;;;;;;5014768;28;20071;-76
2023/06/24 11:24:41;;;;;;;4.25;3.60;;;20.90;81.20;;;;;;5011688;28;20054;-76
2023/06/24 11:27:07;;;;;;;3.88;3.58;;;20.80;81.20;;;;;;5014664;28;20108;-76
2023/06/24 11:29:34;;;;;;;4.13;3.78;;;20.90;80.80;;;;;;5013100;28;20045;-76
2023/06/24 11:32:02;;;;;;;4.38;3.95;;;20.90;80.30;;;;;;5013978;28;20026;-76
2023/06/24 11:34:29;;;;;;;3.70;3.40;;;20.90;80.00;;;;;;5014547;28;20834;-76
2023/06/24 11:36:55;;;;;;;4.65;3.60;;;20.90;79.80;;;;;;5014623;28;20033;-77
2023/06/24 11:39:26;;;;;;;4.55;3.50;;;20.80;79.90;;;;;;5013990;28;20508;-76
2023/06/24 11:41:52;;;;;;;5.60;3.60;;;20.90;79.80;;;;;;5013543;28;20042;-77
2023/06/24 11:44:24;;;;;;;4.47;3.28;;;20.90;79.50;;;;;;5013487;28;20061;-77
2023/06/24 11:46:50;;;;;;;3.70;3.40;;;20.90;79.30;;;;;;5013537;28;20046;-75
2023/06/24 11:49:16;;;;;;;3.65;3.35;;;20.90;79.20;;;;;;5013782;28;20522;-77
2023/06/24 11:51:47;;;;;;;3.75;3.45;;;20.80;79.30;;;;;;5012438;28;20081;-78
2023/06/24 11:54:15;;;;;;;3.58;3.28;;;20.90;79.40;;;;;;5014648;28;20042;-75
2023/06/24 11:56:43;;;;;;;3.55;3.25;;;20.90;79.00;;;;;;5014038;28;20041;-75
2023/06/24 11:59:26;;;;;;;3.83;3.40;;;20.90;79.10;;;;;;5013724;28;20774;-74
2023/06/24 12:01:54;;;;;;;4.78;3.40;;;20.90;79.70;;;;;;5013688;28;20511;-74
2023/06/24 12:04:20;;;;;;;4.57;3.35;;;20.90;79.60;;;;;;5014112;28;20041;-74
2023/06/24 12:06:46;;;;;;;3.85;3.40;;;20.90;79.20;;;;;;5014974;28;20036;-76
2023/06/24 12:09:12;;;;;;;4.07;3.78;;;20.90;78.80;;;;;;5013618;28;20034;-76
2023/06/24 12:11:39;;;;;;;3.35;3.05;;;20.90;77.80;;;;;;5014265;28;20034;-76
2023/06/24 12:14:06;;;;;;;3.47;3.17;;;20.90;77.80;;;;;;5013285;28;20041;-76
2023/06/24 12:16:32;;;;;;;3.78;3.47;;;20.90;77.60;;;;;;5012860;28;20504;-75
2023/06/24 12:18:58;;;;;;;3.30;3.00;;;20.90;77.00;;;;;;5015419;28;20041;-75
2023/06/24 12:21:24;;;;;;;4.38;3.10;;;20.90;77.10;;;;;;5016633;28;20052;-76
2023/06/24 12:23:49;;;;;;;4.65;3.50;;;20.90;77.40;;;;;;5017548;28;20044;-76
2023/06/24 12:26:15;;;;;;;3.70;3.33;;;20.90;77.20;;;;;;5019830;28;20034;-75
2023/06/24 12:28:41;;;;;;;3.72;3.42;;;20.90;77.00;;;;;;5017040;28;20037;-74
2023/06/24 12:31:07;;;;;;;3.40;3.10;;;21.00;76.50;;;;;;5015312;28;20034;-73
2023/06/24 12:33:34;;;;;;;3.85;3.17;;;21.00;76.10;;;;;;5018000;28;20021;-76
2023/06/24 12:36:00;;;;;;;3.78;3.47;;;21.00;76.30;;;;;;5015584;28;20030;-76
2023/06/24 12:38:26;;;;;;;3.70;3.40;;;20.90;76.30;;;;;;5016560;28;20042;-74
2023/06/24 12:40:52;;;;;;;3.50;3.20;;;20.90;76.40;;;;;;5015375;28;20103;-74
2023/06/24 12:43:18;;;;;;;4.03;3.63;;;20.90;76.30;;;;;;5012652;28;20038;-74
2023/06/24 12:45:44;;;;;;;3.80;3.50;;;20.90;76.30;;;;;;5015020;28;20041;-74
2023/06/24 12:48:11;;;;;;;3.70;3.38;;;20.90;76.40;;;;;;5017717;28;20503;-73
2023/06/24 12:50:37;;;;;;;4.18;3.35;;;20.80;77.00;;;;;;5016484;28;20070;-74